Time;durP1;ratioP1;P1;durP2;ratioP2;P2;SDS_P1;SDS_P2;PMS_P1;PMS_P2;Temp;Humidity;BMP_temperature;BMP_pressure;BME280_temperature;BME280_humidity;BME280_pressure;Samples;Min_cycle;Max_cycle;Signal;HPM_P1;HPM_P2
2023/07/28 00:00:29;;;;;;;9.80;8.30;;;;;;;;;;5080425;28;20482;-61
2023/07/28 00:02:55;;;;;;;8.87;8.27;;;;;;;;;;5080173;28;20534;-61
2023/07/28 00:05:21;;;;;;;8.43;7.73;;;;;;;;;;5079358;28;20508;-61
2023/07/28 00:07:48;;;;;;;8.77;8.07;;;;;;;;;;5071328;28;20441;-61
2023/07/28 00:10:14;;;;;;;7.20;6.50;;;;;;;;;;5079957;28;20447;-61
2023/07/28 00:12:41;;;;;;;7.77;7.07;;;;;;;;;;5069353;28;20452;-61
2023/07/28 00:15:07;;;;;;;8.43;7.73;;;;;;;;;;5079773;28;20551;-61
2023/07/28 00:17:35;;;;;;;7.30;6.80;;;;;;;;;;5080217;28;20535;-61
2023/07/28 00:20:01;;;;;;;8.20;7.60;;;;;;;;;;5078830;28;20475;-61
2023/07/28 00:22:28;;;;;;;8.50;7.07;;;;;;;;;;5079465;28;20451;-61
2023/07/28 00:24:54;;;;;;;6.83;6.33;;;;;;;;;;5079528;28;20482;-61
2023/07/28 00:27:20;;;;;;;7.50;6.90;;;;;;;;;;5079170;28;20494;-61
2023/07/28 00:29:47;;;;;;;7.07;6.37;;;;;;;;;;5079795;28;20523;-61
2023/07/28 00:32:13;;;;;;;6.63;6.10;;;;;;;;;;5079321;28;20472;-62
2023/07/28 00:34:41;;;;;;;5.90;5.50;;;;;;;;;;5079314;28;20591;-61
2023/07/28 00:37:07;;;;;;;6.40;5.90;;;;;;;;;;5079153;28;20502;-61
2023/07/28 00:39:34;;;;;;;7.00;6.40;;;;;;;;;;5079577;28;20580;-61
2023/07/28 00:42:00;;;;;;;7.17;6.57;;;;;;;;;;5079189;28;20528;-61
2023/07/28 00:44:26;;;;;;;6.83;6.23;;;;;;;;;;5079572;28;20462;-62
2023/07/28 00:46:53;;;;;;;7.10;6.47;;;;;;;;;;5078858;28;20450;-61
2023/07/28 00:49:19;;;;;;;6.67;6.13;;;;;;;;;;5079462;28;20487;-61
2023/07/28 00:51:47;;;;;;;6.60;5.87;;;;;;;;;;5079724;28;20467;-61
2023/07/28 00:54:14;;;;;;;6.77;5.97;;;;;;;;;;5079284;28;20528;-61
2023/07/28 00:56:40;;;;;;;7.90;7.20;;;;;;;;;;5079115;28;20512;-62
2023/07/28 00:59:06;;;;;;;6.53;5.93;;;;;;;;;;5079557;28;20456;-61
2023/07/28 01:01:33;;;;;;;6.70;6.10;;;;;;;;;;5079745;28;20447;-61
2023/07/28 01:03:59;;;;;;;7.13;6.23;;;;;;;;;;5079384;28;20547;-61
2023/07/28 01:06:30;;;;;;;6.63;6.03;;;;;;;;;;5066644;28;20554;-61
2023/07/28 01:09:00;;;;;;;6.07;5.17;;;;;;;;;;5067409;28;20456;-61
2023/07/28 01:11:26;;;;;;;6.83;6.23;;;;;;;;;;5078671;28;20498;-61
2023/07/28 01:13:53;;;;;;;7.13;6.50;;;;;;;;;;5078993;28;20440;-62
2023/07/28 01:16:19;;;;;;;6.50;5.70;;;;;;;;;;5079342;28;20905;-62
2023/07/28 01:18:46;;;;;;;6.63;6.03;;;;;;;;;;5079673;28;20483;-61
2023/07/28 01:21:15;;;;;;;7.27;6.57;;;;;;;;;;5078897;28;20484;-61
2023/07/28 01:23:45;;;;;;;7.70;7.00;;;;;;;;;;5071752;28;20448;-61
2023/07/28 01:26:16;;;;;;;8.30;7.50;;;;;;;;;;5078696;28;20507;-61
2023/07/28 01:28:44;;;;;;;7.70;7.00;;;;;;;;;;5078879;28;20511;-61
2023/07/28 01:31:10;;;;;;;8.20;7.50;;;;;;;;;;5078859;28;20546;-61
2023/07/28 01:33:37;;;;;;;9.23;7.80;;;;;;;;;;5079130;28;20504;-61
2023/07/28 01:36:04;;;;;;;11.00;9.40;;;;;;;;;;5078442;28;20452;-61
2023/07/28 01:38:30;;;;;;;10.47;8.80;;;;;;;;;;5078869;28;20547;-62
2023/07/28 01:40:56;;;;;;;9.97;8.83;;;;;;;;;;5078302;28;20452;-61
2023/07/28 01:43:23;;;;;;;9.93;8.93;;;;;;;;;;5078815;28;20459;-61
2023/07/28 01:45:50;;;;;;;8.90;8.00;;;;;;;;;;5078814;28;20582;-62
2023/07/28 01:48:17;;;;;;;9.80;8.77;;;;;;;;;;5078932;28;20467;-61
2023/07/28 01:50:43;;;;;;;9.73;8.67;;;;;;;;;;5078823;28;20486;-61
2023/07/28 01:53:10;;;;;;;10.63;9.37;;;;;;;;;;5078785;28;20443;-61
2023/07/28 01:55:36;;;;;;;9.43;8.53;;;;;;;;;;5078746;28;20948;-61
2023/07/28 01:58:03;;;;;;;8.53;7.73;;;;;;;;;;5078478;28;20479;-61
2023/07/28 02:00:29;;;;;;;10.20;9.30;;;;;;;;;;5079059;28;20506;-61
2023/07/28 02:02:58;;;;;;;9.30;8.40;;;;;;;;;;5082222;28;20512;-62
2023/07/28 02:05:25;;;;;;;8.30;7.60;;;;;;;;;;5081036;28;20499;-61
2023/07/28 02:07:51;;;;;;;8.30;7.50;;;;;;;;;;5081711;28;20463;-61
2023/07/28 02:10:17;;;;;;;9.07;7.67;;;;;;;;;;5082182;28;20456;-61
2023/07/28 02:12:44;;;;;;;7.43;6.83;;;;;;;;;;5081779;28;20984;-61
2023/07/28 02:15:10;;;;;;;10.37;9.23;;;;;;;;;;5082319;28;20476;-61
2023/07/28 02:17:36;;;;;;;9.50;8.60;;;;;;;;;;5082107;28;20479;-61
2023/07/28 02:20:05;;;;;;;10.07;8.37;;;;;;;;;;5081967;28;20535;-61
2023/07/28 02:22:31;;;;;;;8.97;8.17;;;;;;;;;;5075038;28;20468;-62
2023/07/28 02:25:01;;;;;;;9.73;8.90;;;;;;;;;;5082027;28;20474;-62
2023/07/28 02:27:27;;;;;;;9.43;8.63;;;;;;;;;;5080981;28;20672;-62
2023/07/28 02:29:54;;;;;;;8.60;7.90;;;;;;;;;;5069822;28;20582;-62
2023/07/28 02:32:20;;;;;;;9.80;9.00;;;;;;;;;;5081188;28;20483;-62
2023/07/28 02:34:47;;;;;;;8.63;7.93;;;;;;;;;;5081301;28;20466;-62
2023/07/28 02:37:15;;;;;;;8.40;7.60;;;;;;;;;;5081111;28;20513;-62
2023/07/28 02:39:41;;;;;;;9.10;8.30;;;;;;;;;;5081406;28;20468;-62
2023/07/28 02:42:07;;;;;;;8.20;7.40;;;;;;;;;;5080971;28;20486;-62
2023/07/28 02:44:34;;;;;;;10.13;8.30;;;;;;;;;;5081441;28;20446;-62
2023/07/28 02:47:00;;;;;;;8.53;7.73;;;;;;;;;;5081209;28;20570;-62
2023/07/28 02:49:27;;;;;;;7.97;7.27;;;;;;;;;;5081439;28;20459;-62
2023/07/28 02:51:53;;;;;;;10.27;9.30;;;;;;;;;;5081361;28;20551;-62
2023/07/28 02:54:23;;;;;;;10.43;9.53;;;;;;;;;;5081664;28;20520;-62
2023/07/28 02:56:49;;;;;;;11.20;10.17;;;;;;;;;;5081029;28;20638;-62
2023/07/28 02:59:16;;;;;;;11.10;10.10;;;;;;;;;;5081241;28;20512;-62
2023/07/28 03:01:42;;;;;;;11.40;10.20;;;;;;;;;;5081080;28;20488;-62
2023/07/28 03:04:09;;;;;;;12.23;11.03;;;;;;;;;;5081201;28;20448;-62
2023/07/28 03:06:35;;;;;;;10.53;9.60;;;;;;;;;;5080233;28;20543;-62
2023/07/28 03:09:02;;;;;;;11.20;10.20;;;;;;;;;;5080739;28;20490;-62
2023/07/28 03:11:30;;;;;;;10.23;9.23;;;;;;;;;;5080791;28;20460;-62
2023/07/28 03:13:56;;;;;;;10.13;8.63;;;;;;;;;;5081064;28;20476;-62
2023/07/28 03:16:22;;;;;;;8.33;7.53;;;;;;;;;;5080850;28;20487;-62
2023/07/28 03:18:49;;;;;;;8.47;7.70;;;;;;;;;;5080667;28;21020;-62
2023/07/28 03:21:16;;;;;;;8.37;7.57;;;;;;;;;;5080523;28;20487;-62
2023/07/28 03:23:42;;;;;;;8.47;7.67;;;;;;;;;;5080580;28;20590;-62
2023/07/28 03:26:09;;;;;;;7.90;7.17;;;;;;;;;;5079983;28;20495;-62
2023/07/28 03:28:36;;;;;;;8.13;7.43;;;;;;;;;;5080368;28;20872;-62
2023/07/28 03:31:03;;;;;;;8.07;7.23;;;;;;;;;;5080501;28;20599;-62
2023/07/28 03:33:29;;;;;;;8.50;7.50;;;;;;;;;;5080637;28;20895;-62
2023/07/28 03:35:55;;;;;;;7.87;7.17;;;;;;;;;;5080118;28;20558;-62
2023/07/28 03:38:22;;;;;;;8.23;7.40;;;;;;;;;;5080349;28;20563;-61
2023/07/28 03:40:48;;;;;;;8.33;7.60;;;;;;;;;;5080562;28;20464;-61
2023/07/28 03:43:15;;;;;;;8.40;7.63;;;;;;;;;;5080370;28;20487;-61
2023/07/28 03:45:42;;;;;;;8.57;7.77;;;;;;;;;;5080358;28;20484;-61
2023/07/28 03:48:09;;;;;;;9.87;8.87;;;;;;;;;;5080488;28;20527;-61
2023/07/28 03:50:35;;;;;;;10.07;9.23;;;;;;;;;;5080433;28;20460;-61
2023/07/28 03:53:02;;;;;;;9.50;8.50;;;;;;;;;;5080274;28;20467;-61
2023/07/28 03:55:28;;;;;;;9.13;8.30;;;;;;;;;;5080361;28;20563;-61
2023/07/28 03:57:54;;;;;;;9.20;8.30;;;;;;;;;;5079613;28;20535;-61
2023/07/28 04:00:21;;;;;;;9.13;8.23;;;;;;;;;;5079988;28;20480;-61
2023/07/28 04:02:48;;;;;;;12.50;8.60;;;;;;;;;;5079958;28;20786;-61
2023/07/28 04:05:15;;;;;;;9.90;8.60;;;;;;;;;;5080027;28;20451;-62
2023/07/28 04:07:41;;;;;;;8.70;8.00;;;;;;;;;;5079213;28;20496;-61
2023/07/28 04:10:08;;;;;;;10.47;9.37;;;;;;;;;;5078790;28;20456;-61
2023/07/28 04:12:34;;;;;;;10.23;9.20;;;;;;;;;;5077048;28;20466;-61
2023/07/28 04:15:01;;;;;;;11.60;10.60;;;;;;;;;;5078859;28;20515;-61
2023/07/28 04:17:28;;;;;;;11.20;10.10;;;;;;;;;;5079187;28;20479;-62
2023/07/28 04:19:56;;;;;;;11.20;10.10;;;;;;;;;;5079220;28;20499;-61
2023/07/28 04:22:22;;;;;;;11.97;10.87;;;;;;;;;;5077539;28;20456;-62
2023/07/28 04:24:48;;;;;;;12.27;11.17;;;;;;;;;;5079037;28;20492;-62
2023/07/28 04:27:15;;;;;;;13.93;12.60;;;;;;;;;;5078525;28;20491;-62
2023/07/28 04:29:41;;;;;;;13.23;12.10;;;;;;;;;;5078115;28;20981;-62
2023/07/28 04:32:08;;;;;;;13.47;12.17;;;;;;;;;;5078788;28;20479;-62
2023/07/28 04:34:34;;;;;;;14.07;12.73;;;;;;;;;;5078610;28;20513;-62
2023/07/28 04:37:02;;;;;;;15.53;12.90;;;;;;;;;;5077826;28;20563;-62
2023/07/28 04:39:28;;;;;;;15.30;12.57;;;;;;;;;;5079082;28;20543;-62
2023/07/28 04:41:55;;;;;;;13.93;12.73;;;;;;;;;;5078487;28;20497;-62
2023/07/28 04:44:21;;;;;;;16.13;13.43;;;;;;;;;;5078231;28;20447;-62
2023/07/28 04:46:48;;;;;;;14.10;12.73;;;;;;;;;;5078860;28;20961;-62
2023/07/28 04:49:15;;;;;;;17.50;13.37;;;;;;;;;;5078853;28;20452;-62
2023/07/28 04:51:41;;;;;;;15.97;14.53;;;;;;;;;;5077509;28;21301;-62
2023/07/28 04:54:09;;;;;;;17.37;15.60;;;;;;;;;;5074392;28;20509;-62
2023/07/28 04:56:35;;;;;;;17.43;15.80;;;;;;;;;;5078550;28;20502;-61
2023/07/28 04:59:01;;;;;;;18.60;16.90;;;;;;;;;;5077876;28;20513;-61
2023/07/28 05:01:28;;;;;;;19.93;17.97;;;;;;;;;;5078978;28;20527;-62
2023/07/28 05:03:54;;;;;;;20.47;18.57;;;;;;;;;;5078488;28;20478;-62
2023/07/28 05:06:21;;;;;;;20.70;18.67;;;;;;;;;;5077067;28;20591;-62
2023/07/28 05:08:47;;;;;;;19.87;18.07;;;;;;;;;;5078489;28;20543;-61
2023/07/28 05:11:15;;;;;;;19.97;18.10;;;;;;;;;;5077872;28;20514;-61
2023/07/28 05:13:41;;;;;;;19.43;17.63;;;;;;;;;;5074082;28;20480;-62
2023/07/28 05:16:07;;;;;;;19.70;17.80;;;;;;;;;;5078395;28;20440;-61
2023/07/28 05:18:34;;;;;;;18.30;16.50;;;;;;;;;;5078548;28;20476;-62
2023/07/28 05:21:00;;;;;;;18.93;17.23;;;;;;;;;;5077688;28;20539;-62
2023/07/28 05:23:27;;;;;;;20.90;17.57;;;;;;;;;;5078433;28;20463;-62
2023/07/28 05:25:53;;;;;;;18.67;16.87;;;;;;;;;;5078224;28;20479;-61
2023/07/28 05:28:21;;;;;;;19.63;17.60;;;;;;;;;;5076699;28;20534;-61
2023/07/28 05:30:47;;;;;;;20.03;18.07;;;;;;;;;;5078042;28;20488;-61
2023/07/28 05:33:13;;;;;;;19.40;17.60;;;;;;;;;;5080138;28;20487;-61
2023/07/28 05:35:40;;;;;;;19.77;17.77;;;;;;;;;;5080941;28;20491;-61
2023/07/28 05:38:06;;;;;;;19.20;17.40;;;;;;;;;;5082362;28;20531;-61
2023/07/28 05:40:32;;;;;;;20.80;19.00;;;;;;;;;;5081926;28;20827;-61
2023/07/28 05:42:59;;;;;;;19.17;17.47;;;;;;;;;;5080878;28;20475;-61
2023/07/28 05:45:26;;;;;;;20.10;18.07;;;;;;;;;;5082276;28;20530;-61
2023/07/28 05:47:53;;;;;;;20.70;18.90;;;;;;;;;;5081923;28;20555;-61
2023/07/28 05:50:20;;;;;;;19.90;18.10;;;;;;;;;;5081005;28;20491;-61
2023/07/28 05:52:46;;;;;;;19.07;17.30;;;;;;;;;;5081813;28;21027;-61
2023/07/28 05:55:13;;;;;;;18.20;16.63;;;;;;;;;;5082146;28;21051;-61
2023/07/28 05:57:39;;;;;;;19.90;18.13;;;;;;;;;;5080633;28;20448;-61
2023/07/28 06:00:09;;;;;;;20.10;18.30;;;;;;;;;;5081618;28;20515;-61
2023/07/28 06:02:37;;;;;;;19.60;17.80;;;;;;;;;;5081944;28;20456;-61
2023/07/28 06:05:03;;;;;;;19.27;17.43;;;;;;;;;;5080719;28;21027;-61
2023/07/28 06:07:30;;;;;;;18.17;16.57;;;;;;;;;;5080578;28;20570;-61
2023/07/28 06:09:56;;;;;;;18.90;17.30;;;;;;;;;;5080996;28;20990;-61
2023/07/28 06:12:22;;;;;;;19.63;17.70;;;;;;;;;;5080567;28;20452;-60
2023/07/28 06:14:49;;;;;;;20.70;18.50;;;;;;;;;;5082007;28;20439;-60
2023/07/28 06:17:15;;;;;;;19.93;17.90;;;;;;;;;;5081776;28;20444;-60
2023/07/28 06:19:43;;;;;;;20.17;18.27;;;;;;;;;;5080597;28;20456;-61
2023/07/28 06:22:09;;;;;;;17.77;16.17;;;;;;;;;;5071489;28;20479;-60
2023/07/28 06:24:36;;;;;;;19.53;17.63;;;;;;;;;;5081007;28;20452;-60
2023/07/28 06:27:07;;;;;;;19.57;17.47;;;;;;;;;;5078049;28;21052;-60
2023/07/28 06:29:33;;;;;;;18.60;16.90;;;;;;;;;;5067590;28;20460;-60
2023/07/28 06:31:59;;;;;;;18.43;16.53;;;;;;;;;;5076128;28;20467;-60
2023/07/28 06:34:26;;;;;;;17.37;15.87;;;;;;;;;;5079990;28;20451;-59
2023/07/28 06:36:54;;;;;;;17.77;16.27;;;;;;;;;;5080144;28;20507;-60
2023/07/28 06:39:20;;;;;;;17.27;15.57;;;;;;;;;;5080425;28;20463;-60
2023/07/28 06:41:46;;;;;;;20.17;18.47;;;;;;;;;;5079691;28;20543;-60
2023/07/28 06:44:13;;;;;;;18.10;16.50;;;;;;;;;;5080040;28;20472;-60
2023/07/28 06:46:39;;;;;;;16.83;15.33;;;;;;;;;;5080547;28;20556;-60
2023/07/28 06:49:05;;;;;;;15.63;14.23;;;;;;;;;;5079942;28;20483;-60
2023/07/28 06:51:32;;;;;;;15.33;13.83;;;;;;;;;;5080605;28;20834;-60
2023/07/28 06:54:00;;;;;;;17.30;15.70;;;;;;;;;;5080572;28;20451;-60
2023/07/28 06:56:26;;;;;;;15.50;14.10;;;;;;;;;;5079556;28;20448;-61
2023/07/28 06:58:52;;;;;;;14.80;13.40;;;;;;;;;;5078730;28;20521;-61
2023/07/28 07:01:19;;;;;;;13.97;12.67;;;;;;;;;;5080311;28;20480;-61
2023/07/28 07:03:46;;;;;;;13.97;12.67;;;;;;;;;;5072265;28;20534;-61
2023/07/28 07:06:12;;;;;;;12.40;11.17;;;;;;;;;;5079341;28;20937;-61
2023/07/28 07:08:39;;;;;;;12.00;10.80;;;;;;;;;;5080476;28;20483;-62
2023/07/28 07:11:07;;;;;;;11.87;10.70;;;;;;;;;;5079195;28;20454;-61
2023/07/28 07:13:33;;;;;;;12.27;11.13;;;;;;;;;;5080099;28;20483;-61
2023/07/28 07:16:00;;;;;;;12.80;11.50;;;;;;;;;;5079944;28;20443;-61
2023/07/28 07:18:27;;;;;;;12.67;11.47;;;;;;;;;;5079668;28;20471;-61
2023/07/28 07:20:53;;;;;;;11.80;10.70;;;;;;;;;;5080162;28;20467;-61
2023/07/28 07:23:19;;;;;;;12.40;10.73;;;;;;;;;;5071971;28;20583;-61
2023/07/28 07:25:46;;;;;;;13.20;11.90;;;;;;;;;;5076107;28;20459;-61
2023/07/28 07:28:14;;;;;;;11.47;10.40;;;;;;;;;;5078629;28;20483;-61
2023/07/28 07:30:41;;;;;;;12.30;11.03;;;;;;;;;;5075084;28;20471;-61
2023/07/28 07:33:07;;;;;;;12.27;11.10;;;;;;;;;;5079457;28;20545;-61
2023/07/28 07:35:36;;;;;;;12.90;11.50;;;;;;;;;;5079999;28;20532;-61
2023/07/28 07:38:02;;;;;;;11.97;10.83;;;;;;;;;;5079211;28;20513;-61
2023/07/28 07:40:29;;;;;;;12.00;10.57;;;;;;;;;;5075720;28;20491;-61
2023/07/28 07:42:56;;;;;;;11.47;10.37;;;;;;;;;;5069860;28;20452;-61
2023/07/28 07:45:23;;;;;;;11.20;10.10;;;;;;;;;;5079438;28;20444;-62
2023/07/28 07:47:50;;;;;;;10.77;9.67;;;;;;;;;;5078707;28;20558;-62
2023/07/28 07:50:16;;;;;;;10.17;8.83;;;;;;;;;;5079464;28;20456;-61
2023/07/28 07:52:43;;;;;;;12.50;10.07;;;;;;;;;;5079372;28;20538;-61
2023/07/28 07:55:10;;;;;;;10.07;9.07;;;;;;;;;;5078626;28;20885;-61
2023/07/28 07:57:36;;;;;;;11.03;10.03;;;;;;;;;;5078171;28;20495;-61
2023/07/28 08:00:03;;;;;;;9.63;8.83;;;;;;;;;;5079471;28;20726;-61
2023/07/28 08:02:31;;;;;;;9.40;8.60;;;;;;;;;;5078907;28;20534;-61
2023/07/28 08:04:57;;;;;;;9.90;9.03;;;;;;;;;;5079070;28;20443;-61
2023/07/28 08:07:24;;;;;;;7.70;6.87;;;;;;;;;;5078433;28;20512;-62
2023/07/28 08:09:50;;;;;;;7.23;6.63;;;;;;;;;;5068010;28;20470;-64
2023/07/28 08:12:17;;;;;;;6.63;6.13;;;;;;;;;;5070326;28;20483;-62
2023/07/28 08:14:43;;;;;;;7.60;6.90;;;;;;;;;;5078555;28;20707;-61
2023/07/28 08:17:10;;;;;;;6.97;6.37;;;;;;;;;;5078616;28;20761;-61
2023/07/28 08:19:38;;;;;;;7.47;6.13;;;;;;;;;;5078707;28;20517;-61
2023/07/28 08:22:04;;;;;;;6.63;6.00;;;;;;;;;;5078838;28;20816;-61
2023/07/28 08:24:32;;;;;;;7.27;6.57;;;;;;;;;;5078463;28;20529;-61
2023/07/28 08:26:58;;;;;;;6.63;6.10;;;;;;;;;;5077930;28;20551;-62
2023/07/28 08:29:25;;;;;;;7.70;6.90;;;;;;;;;;5078968;28;20824;-62
2023/07/28 08:31:52;;;;;;;8.30;6.47;;;;;;;;;;5078115;28;20455;-61
2023/07/28 08:34:18;;;;;;;5.67;5.17;;;;;;;;;;5078702;28;20447;-61
2023/07/28 08:36:46;;;;;;;6.10;5.60;;;;;;;;;;5078487;28;20843;-61
2023/07/28 08:39:14;;;;;;;5.33;4.40;;;;;;;;;;5078154;28;20454;-62
2023/07/28 08:41:41;;;;;;;5.30;4.80;;;;;;;;;;5078128;28;20456;-62
2023/07/28 08:44:08;;;;;;;5.60;3.97;;;;;;;;;;5073005;28;20455;-62
2023/07/28 08:46:35;;;;;;;8.67;4.73;;;;;;;;;;5072010;28;20456;-62
2023/07/28 08:49:02;;;;;;;5.67;5.13;;;;;;;;;;5078909;28;20551;-62
2023/07/28 08:51:28;;;;;;;8.30;4.90;;;;;;;;;;5078763;28;20483;-62
2023/07/28 08:53:56;;;;;;;6.17;5.67;;;;;;;;;;5078441;28;20505;-62
2023/07/28 08:56:24;;;;;;;5.60;4.93;;;;;;;;;;5078929;28;20478;-62
2023/07/28 08:58:57;;;;;;;5.30;4.87;;;;;;;;;;5078498;28;20501;-61
2023/07/28 09:01:24;;;;;;;6.07;4.57;;;;;;;;;;5077929;28;20541;-60
2023/07/28 09:03:51;;;;;;;5.30;4.30;;;;;;;;;;5078636;28;20796;-61
2023/07/28 09:06:18;;;;;;;4.87;4.47;;;;;;;;;;5077745;28;20440;-61
2023/07/28 09:08:45;;;;;;;5.73;4.67;;;;;;;;;;5080751;28;20574;-62
2023/07/28 09:11:14;;;;;;;6.00;5.40;;;;;;;;;;5082552;28;20527;-62
2023/07/28 09:13:42;;;;;;;9.40;5.40;;;;;;;;;;5079993;28;20527;-63
2023/07/28 09:16:17;;;;;;;15.03;5.63;;;;;;;;;;5082250;28;20566;-63
2023/07/28 09:18:43;;;;;;;6.93;6.23;;;;;;;;;;5071537;28;20440;-63
2023/07/28 09:21:16;;;;;;;6.00;5.50;;;;;;;;;;5082639;28;20725;-64
2023/07/28 09:23:43;;;;;;;4.90;4.50;;;;;;;;;;5081371;28;20514;-64
2023/07/28 09:26:09;;;;;;;6.00;4.70;;;;;;;;;;5082693;28;20598;-63
2023/07/28 09:28:41;;;;;;;4.30;3.80;;;;;;;;;;5082011;28;20498;-63
2023/07/28 09:31:07;;;;;;;5.47;4.10;;;;;;;;;;5081574;28;20574;-64
2023/07/28 09:33:35;;;;;;;4.10;3.70;;;;;;;;;;5082125;28;20476;-63
2023/07/28 09:36:08;;;;;;;4.93;3.93;;;;;;;;;;5081740;28;20489;-63
2023/07/28 09:38:35;;;;;;;4.40;4.10;;;;;;;;;;5081158;28;20815;-63
2023/07/28 09:41:05;;;;;;;4.00;3.60;;;;;;;;;;5082303;28;20463;-64
2023/07/28 09:43:32;;;;;;;4.50;4.10;;;;;;;;;;5081652;28;20513;-63
2023/07/28 09:46:00;;;;;;;4.40;4.00;;;;;;;;;;5081360;28;20531;-63
2023/07/28 09:48:28;;;;;;;4.90;3.77;;;;;;;;;;5078524;28;20490;-64
2023/07/28 09:50:55;;;;;;;6.43;3.83;;;;;;;;;;5081700;28;20761;-63
2023/07/28 09:53:23;;;;;;;3.87;3.47;;;;;;;;;;5081445;28;20526;-64
2023/07/28 09:55:50;;;;;;;3.90;3.37;;;;;;;;;;5076462;28;20960;-63
2023/07/28 09:58:18;;;;;;;5.83;4.03;;;;;;;;;;5078274;28;20448;-60
2023/07/28 10:00:46;;;;;;;4.13;3.73;;;;;;;;;;5081327;28;20519;-61
2023/07/28 10:03:14;;;;;;;4.77;4.37;;;;;;;;;;5082078;28;20460;-60
2023/07/28 10:05:41;;;;;;;4.00;3.63;;;;;;;;;;5080771;28;20506;-61
2023/07/28 10:08:08;;;;;;;4.03;3.73;;;;;;;;;;5081274;28;20548;-61
2023/07/28 10:10:34;;;;;;;6.20;4.90;;;;;;;;;;5081448;28;20479;-63
2023/07/28 10:13:02;;;;;;;5.30;4.60;;;;;;;;;;5080972;28;20464;-62
2023/07/28 10:15:29;;;;;;;5.97;5.47;;;;;;;;;;5080850;28;20646;-62
2023/07/28 10:17:58;;;;;;;6.43;5.80;;;;;;;;;;5081436;28;20475;-60
2023/07/28 10:20:30;;;;;;;7.33;6.73;;;;;;;;;;5079841;28;20451;-60
2023/07/28 10:23:02;;;;;;;6.50;5.93;;;;;;;;;;5080318;28;20452;-62
2023/07/28 10:25:29;;;;;;;7.10;6.40;;;;;;;;;;5081690;28;20490;-62
2023/07/28 10:27:56;;;;;;;7.00;6.00;;;;;;;;;;5080517;28;20519;-62
2023/07/28 10:30:22;;;;;;;7.50;6.70;;;;;;;;;;5079826;28;20924;-60
2023/07/28 10:32:50;;;;;;;6.93;6.33;;;;;;;;;;5077956;28;20486;-60
2023/07/28 10:35:23;;;;;;;5.50;5.00;;;;;;;;;;5069009;28;20516;-61
2023/07/28 10:37:51;;;;;;;7.10;6.50;;;;;;;;;;5080074;28;20475;-60
2023/07/28 10:40:31;;;;;;;6.23;5.73;;;;;;;;;;5075310;28;20515;-61
2023/07/28 10:42:57;;;;;;;7.23;6.37;;;;;;;;;;5080149;28;20503;-61
2023/07/28 10:45:24;;;;;;;6.60;6.00;;;;;;;;;;5080332;28;20870;-61
2023/07/28 10:47:52;;;;;;;7.97;6.90;;;;;;;;;;5080617;28;20564;-61
2023/07/28 10:50:20;;;;;;;8.40;7.47;;;;;;;;;;5080886;28;21000;-62
2023/07/28 10:52:46;;;;;;;8.90;8.00;;;;;;;;;;5080131;28;20539;-60
2023/07/28 10:55:15;;;;;;;9.00;8.20;;;;;;;;;;5080688;28;20773;-62
2023/07/28 10:57:42;;;;;;;9.20;7.97;;;;;;;;;;5080458;28;20447;-62
2023/07/28 11:00:09;;;;;;;9.90;9.00;;;;;;;;;;5080083;28;20444;-62
2023/07/28 11:02:38;;;;;;;9.80;8.90;;;;;;;;;;5080443;28;20478;-62
2023/07/28 11:05:06;;;;;;;10.33;8.33;;;;;;;;;;5080323;28;20898;-61
2023/07/28 11:07:32;;;;;;;10.13;8.23;;;;;;;;;;5079182;28;20467;-61
2023/07/28 11:10:01;;;;;;;8.87;7.97;;;;;;;;;;5079879;28;20547;-61
2023/07/28 11:12:28;;;;;;;8.53;7.83;;;;;;;;;;5079936;28;20456;-62
2023/07/28 11:14:55;;;;;;;8.57;7.77;;;;;;;;;;5079433;28;20797;-61
2023/07/28 11:17:21;;;;;;;8.40;7.50;;;;;;;;;;5080558;28;20474;-61
2023/07/28 11:19:48;;;;;;;7.90;7.20;;;;;;;;;;5080300;28;20535;-61
2023/07/28 11:22:17;;;;;;;8.80;7.67;;;;;;;;;;5079595;28;20487;-61
2023/07/28 11:24:45;;;;;;;8.23;7.53;;;;;;;;;;5079614;28;20474;-61
2023/07/28 11:27:11;;;;;;;7.47;6.77;;;;;;;;;;5079491;28;20460;-61
2023/07/28 11:29:39;;;;;;;6.43;5.83;;;;;;;;;;5079330;28;20777;-62
2023/07/28 11:32:06;;;;;;;5.90;5.40;;;;;;;;;;5079730;28;20562;-61
2023/07/28 11:34:35;;;;;;;6.47;5.87;;;;;;;;;;5073970;28;20500;-62
2023/07/28 11:37:03;;;;;;;6.60;5.90;;;;;;;;;;5067390;28;20485;-62
2023/07/28 11:39:31;;;;;;;6.73;6.03;;;;;;;;;;5074759;28;20452;-62
2023/07/28 11:41:58;;;;;;;6.40;5.80;;;;;;;;;;5076830;28;20463;-62
2023/07/28 11:44:25;;;;;;;6.37;5.77;;;;;;;;;;5072312;28;20440;-61
2023/07/28 11:46:55;;;;;;;7.23;5.13;;;;;;;;;;5074428;28;20867;-62
2023/07/28 11:49:22;;;;;;;5.80;5.20;;;;;;;;;;5079518;28;20483;-63
2023/07/28 11:51:49;;;;;;;4.93;4.53;;;;;;;;;;5078693;28;20436;-63
2023/07/28 11:54:19;;;;;;;7.47;5.60;;;;;;;;;;5079192;28;20511;-63
2023/07/28 11:56:46;;;;;;;6.07;5.47;;;;;;;;;;5079375;28;20619;-63
2023/07/28 11:59:15;;;;;;;5.77;5.07;;;;;;;;;;5078535;28;20456;-63
2023/07/28 12:01:56;;;;;;;5.50;5.00;;;;;;;;;;5074620;28;20765;-64
2023/07/28 12:04:23;;;;;;;5.67;5.17;;;;;;;;;;5071779;28;20478;-63
2023/07/28 12:07:04;;;;;;;5.83;5.23;;;;;;;;;;5073724;28;20487;-63
2023/07/28 12:09:31;;;;;;;4.97;4.50;;;;;;;;;;5078583;28;20488;-63
2023/07/28 12:11:58;;;;;;;6.70;5.97;;;;;;;;;;5078648;28;20486;-63
2023/07/28 12:14:31;;;;;;;5.60;5.10;;;;;;;;;;5078281;28;20827;-63
2023/07/28 12:17:00;;;;;;;5.60;5.10;;;;;;;;;;5079260;28;20829;-63
2023/07/28 12:19:26;;;;;;;5.40;4.67;;;;;;;;;;5079562;28;20475;-63
2023/07/28 12:21:53;;;;;;;9.63;4.87;;;;;;;;;;5078815;28;20556;-63
2023/07/28 12:24:19;;;;;;;5.77;5.17;;;;;;;;;;5078541;28;20483;-63
2023/07/28 12:26:46;;;;;;;6.50;5.80;;;;;;;;;;5079168;28;20946;-63
2023/07/28 12:29:12;;;;;;;5.13;4.63;;;;;;;;;;5076906;28;20547;-63
2023/07/28 12:31:39;;;;;;;6.93;6.23;;;;;;;;;;5078893;28;20448;-63
2023/07/28 12:34:07;;;;;;;5.80;5.30;;;;;;;;;;5078760;28;20452;-63
2023/07/28 12:36:33;;;;;;;6.00;5.50;;;;;;;;;;5078162;28;20868;-62
2023/07/28 12:39:00;;;;;;;6.97;5.47;;;;;;;;;;5079245;28;20444;-62
2023/07/28 12:41:26;;;;;;;6.03;5.43;;;;;;;;;;5078552;28;20459;-62
2023/07/28 12:43:54;;;;;;;6.47;5.87;;;;;;;;;;5077491;28;20478;-62
2023/07/28 12:46:20;;;;;;;7.30;6.10;;;;;;;;;;5078962;28;20484;-61
2023/07/28 12:48:47;;;;;;;6.97;6.37;;;;;;;;;;5078753;28;20515;-62
2023/07/28 12:51:14;;;;;;;6.37;5.77;;;;;;;;;;5077971;28;20491;-62
2023/07/28 12:53:41;;;;;;;7.50;6.80;;;;;;;;;;5078960;28;20456;-63
2023/07/28 12:56:07;;;;;;;6.10;5.53;;;;;;;;;;5075956;28;20432;-62
2023/07/28 12:58:34;;;;;;;6.37;5.63;;;;;;;;;;5077545;28;20944;-62
2023/07/28 13:01:01;;;;;;;6.07;5.53;;;;;;;;;;5078842;28;20475;-62
2023/07/28 13:03:28;;;;;;;5.70;5.03;;;;;;;;;;5078401;28;21019;-62
2023/07/28 13:05:54;;;;;;;5.63;5.13;;;;;;;;;;5077309;28;20716;-62
2023/07/28 13:08:22;;;;;;;5.70;5.20;;;;;;;;;;5078540;28;20494;-62
2023/07/28 13:10:48;;;;;;;5.67;5.17;;;;;;;;;;5078146;28;20491;-62
2023/07/28 13:13:15;;;;;;;4.97;4.57;;;;;;;;;;5077460;28;20451;-62
2023/07/28 13:15:41;;;;;;;4.87;4.43;;;;;;;;;;5072859;28;20478;-62
2023/07/28 13:18:07;;;;;;;6.57;4.67;;;;;;;;;;5078725;28;20563;-62
2023/07/28 13:20:34;;;;;;;5.40;4.07;;;;;;;;;;5077555;28;20506;-62
2023/07/28 13:23:00;;;;;;;4.43;4.03;;;;;;;;;;5078373;28;20511;-62
2023/07/28 13:25:28;;;;;;;5.60;5.10;;;;;;;;;;5078172;28;20484;-62
2023/07/28 13:27:54;;;;;;;5.87;4.30;;;;;;;;;;5077170;28;20486;-61
2023/07/28 13:30:21;;;;;;;6.07;4.97;;;;;;;;;;5078174;28;20479;-62
2023/07/28 13:32:47;;;;;;;6.03;5.53;;;;;;;;;;5075523;28;20463;-62
2023/07/28 13:35:14;;;;;;;5.57;4.60;;;;;;;;;;5068597;28;20460;-62
2023/07/28 13:37:41;;;;;;;6.13;5.53;;;;;;;;;;5067225;28;20475;-63
2023/07/28 13:40:08;;;;;;;5.60;5.10;;;;;;;;;;5077645;28;20492;-63
2023/07/28 13:42:35;;;;;;;5.07;4.60;;;;;;;;;;5076896;28;20503;-63
2023/07/28 13:45:02;;;;;;;5.57;5.07;;;;;;;;;;5078138;28;21177;-62
2023/07/28 13:47:28;;;;;;;6.23;5.73;;;;;;;;;;5078343;28;20443;-63
2023/07/28 13:49:55;;;;;;;5.20;4.70;;;;;;;;;;5077676;28;20850;-62
2023/07/28 13:52:21;;;;;;;5.77;5.23;;;;;;;;;;5078205;28;21012;-62
2023/07/28 13:54:48;;;;;;;7.70;5.60;;;;;;;;;;5080602;28;20514;-62
2023/07/28 13:57:14;;;;;;;6.23;5.63;;;;;;;;;;5080777;28;20481;-61
2023/07/28 13:59:43;;;;;;;6.23;5.73;;;;;;;;;;5081489;28;20451;-62
2023/07/28 14:02:09;;;;;;;6.27;5.67;;;;;;;;;;5081584;28;20559;-62
2023/07/28 14:04:36;;;;;;;6.17;5.63;;;;;;;;;;5081666;28;20554;-61
2023/07/28 14:07:02;;;;;;;5.93;5.33;;;;;;;;;;5078158;28;20501;-62
2023/07/28 14:09:28;;;;;;;5.70;5.20;;;;;;;;;;5078866;28;20468;-62
2023/07/28 14:11:55;;;;;;;6.00;5.40;;;;;;;;;;5074072;28;20479;-62
2023/07/28 14:14:21;;;;;;;8.00;5.60;;;;;;;;;;5077747;28;20892;-61
2023/07/28 14:16:49;;;;;;;7.97;5.27;;;;;;;;;;5081514;28;20436;-62
2023/07/28 14:19:16;;;;;;;6.17;5.67;;;;;;;;;;5067926;28;20457;-62
2023/07/28 14:21:42;;;;;;;6.77;6.07;;;;;;;;;;5080358;28;20454;-62
2023/07/28 14:24:08;;;;;;;6.00;5.30;;;;;;;;;;5077388;28;20523;-62
2023/07/28 14:26:35;;;;;;;6.20;5.60;;;;;;;;;;5081669;28;20472;-62
2023/07/28 14:29:01;;;;;;;6.90;5.90;;;;;;;;;;5080554;28;20550;-61
2023/07/28 14:31:28;;;;;;;6.00;5.50;;;;;;;;;;5081165;28;21030;-62
2023/07/28 14:33:55;;;;;;;5.97;5.13;;;;;;;;;;5080975;28;20486;-62